sensor_id;sensor_type;location;lat;lon;timestamp;temperature;humidity
14473;DHT22;7322;50.872;4.386;2023-11-21T00:00:37;17.80;99.90
14473;DHT22;7322;50.872;4.386;2023-11-21T00:03:04;17.70;99.90
14473;DHT22;7322;50.872;4.386;2023-11-21T00:05:32;17.70;99.90
14473;DHT22;7322;50.872;4.386;2023-11-21T00:08:00;17.80;99.90
14473;DHT22;7322;50.872;4.386;2023-11-21T00:10:27;17.80;99.90
14473;DHT22;7322;50.872;4.386;2023-11-21T00:12:54;17.80;99.90
14473;DHT22;7322;50.872;4.386;2023-11-21T00:15:22;17.80;99.90
14473;DHT22;7322;50.872;4.386;2023-11-21T00:17:49;17.70;99.90
14473;DHT22;7322;50.872;4.386;2023-11-21T00:20:16;17.80;99.90
14473;DHT22;7322;50.872;4.386;2023-11-21T00:22:43;17.70;99.90
14473;DHT22;7322;50.872;4.386;2023-11-21T00:25:12;17.70;99.90
14473;DHT22;7322;50.872;4.386;2023-11-21T00:27:41;17.70;99.90
14473;DHT22;7322;50.872;4.386;2023-11-21T00:30:08;17.80;99.90
14473;DHT22;7322;50.872;4.386;2023-11-21T00:32:35;17.80;99.90
14473;DHT22;7322;50.872;4.386;2023-11-21T00:35:03;17.80;99.90
14473;DHT22;7322;50.872;4.386;2023-11-21T00:37:31;17.80;99.90
14473;DHT22;7322;50.872;4.386;2023-11-21T00:39:58;17.80;99.90
14473;DHT22;7322;50.872;4.386;2023-11-21T00:42:26;17.80;99.90
14473;DHT22;7322;50.872;4.386;2023-11-21T00:44:53;17.80;99.90
14473;DHT22;7322;50.872;4.386;2023-11-21T00:47:20;17.80;99.90
14473;DHT22;7322;50.872;4.386;2023-11-21T00:49:48;17.80;99.90
14473;DHT22;7322;50.872;4.386;2023-11-21T00:52:15;17.80;99.90
14473;DHT22;7322;50.872;4.386;2023-11-21T00:54:42;17.80;99.90
14473;DHT22;7322;50.872;4.386;2023-11-21T00:57:10;17.70;99.90
14473;DHT22;7322;50.872;4.386;2023-11-21T00:59:39;17.70;99.90
14473;DHT22;7322;50.872;4.386;2023-11-21T01:02:05;17.70;99.90
14473;DHT22;7322;50.872;4.386;2023-11-21T01:04:35;17.70;99.90
14473;DHT22;7322;50.872;4.386;2023-11-21T01:07:03;17.80;99.90
14473;DHT22;7322;50.872;4.386;2023-11-21T01:09:31;17.80;99.90
14473;DHT22;7322;50.872;4.386;2023-11-21T01:11:58;17.80;99.90
14473;DHT22;7322;50.872;4.386;2023-11-21T01:14:25;17.80;99.90
14473;DHT22;7322;50.872;4.386;2023-11-21T01:16:54;17.80;99.90
14473;DHT22;7322;50.872;4.386;2023-11-21T01:19:21;17.80;99.90
14473;DHT22;7322;50.872;4.386;2023-11-21T01:21:48;17.80;99.90
14473;DHT22;7322;50.872;4.386;2023-11-21T01:24:15;17.80;99.90
14473;DHT22;7322;50.872;4.386;2023-11-21T01:26:42;17.80;99.90
14473;DHT22;7322;50.872;4.386;2023-11-21T01:29:11;17.80;99.90
14473;DHT22;7322;50.872;4.386;2023-11-21T01:31:38;17.80;99.90
14473;DHT22;7322;50.872;4.386;2023-11-21T01:34:06;17.80;99.90
14473;DHT22;7322;50.872;4.386;2023-11-21T01:36:33;17.80;99.90
14473;DHT22;7322;50.872;4.386;2023-11-21T01:39:01;17.80;99.90
14473;DHT22;7322;50.872;4.386;2023-11-21T01:41:33;17.80;99.90
14473;DHT22;7322;50.872;4.386;2023-11-21T01:44:00;17.80;99.90
14473;DHT22;7322;50.872;4.386;2023-11-21T01:46:28;17.80;99.90
14473;DHT22;7322;50.872;4.386;2023-11-21T01:48:56;17.80;99.90
14473;DHT22;7322;50.872;4.386;2023-11-21T01:51:24;17.80;99.90
14473;DHT22;7322;50.872;4.386;2023-11-21T01:53:52;17.70;99.90
14473;DHT22;7322;50.872;4.386;2023-11-21T01:56:19;17.80;99.90
14473;DHT22;7322;50.872;4.386;2023-11-21T01:58:47;17.80;99.90
14473;DHT22;7322;50.872;4.386;2023-11-21T02:01:15;17.70;99.90
14473;DHT22;7322;50.872;4.386;2023-11-21T02:03:44;17.70;99.90
14473;DHT22;7322;50.872;4.386;2023-11-21T02:06:11;17.70;99.90
14473;DHT22;7322;50.872;4.386;2023-11-21T02:08:39;17.80;99.90
14473;DHT22;7322;50.872;4.386;2023-11-21T02:11:08;17.80;99.90
14473;DHT22;7322;50.872;4.386;2023-11-21T02:13:39;17.80;99.90
14473;DHT22;7322;50.872;4.386;2023-11-21T02:16:09;17.80;99.90
14473;DHT22;7322;50.872;4.386;2023-11-21T02:18:39;17.80;99.90
14473;DHT22;7322;50.872;4.386;2023-11-21T02:21:07;17.80;99.90
14473;DHT22;7322;50.872;4.386;2023-11-21T02:23:40;17.80;99.90
14473;DHT22;7322;50.872;4.386;2023-11-21T02:26:09;17.80;99.90
14473;DHT22;7322;50.872;4.386;2023-11-21T02:28:36;17.80;99.90
14473;DHT22;7322;50.872;4.386;2023-11-21T02:31:04;17.70;99.90
14473;DHT22;7322;50.872;4.386;2023-11-21T02:33:33;17.70;99.90
14473;DHT22;7322;50.872;4.386;2023-11-21T02:36:01;17.70;99.90
14473;DHT22;7322;50.872;4.386;2023-11-21T02:38:28;17.70;99.90
14473;DHT22;7322;50.872;4.386;2023-11-21T02:40:58;17.70;99.90
14473;DHT22;7322;50.872;4.386;2023-11-21T02:43:25;17.70;99.90
14473;DHT22;7322;50.872;4.386;2023-11-21T02:45:52;17.80;99.90
14473;DHT22;7322;50.872;4.386;2023-11-21T02:48:19;17.70;99.90
14473;DHT22;7322;50.872;4.386;2023-11-21T02:50:45;17.70;99.90
14473;DHT22;7322;50.872;4.386;2023-11-21T02:53:12;17.70;99.90
14473;DHT22;7322;50.872;4.386;2023-11-21T02:55:40;17.70;99.90
14473;DHT22;7322;50.872;4.386;2023-11-21T02:58:08;17.70;99.90
14473;DHT22;7322;50.872;4.386;2023-11-21T03:00:35;17.70;99.90
14473;DHT22;7322;50.872;4.386;2023-11-21T03:03:02;17.70;99.90
14473;DHT22;7322;50.872;4.386;2023-11-21T03:05:29;17.70;99.90
14473;DHT22;7322;50.872;4.386;2023-11-21T03:07:56;17.70;99.90
14473;DHT22;7322;50.872;4.386;2023-11-21T03:10:23;17.70;99.90
14473;DHT22;7322;50.872;4.386;2023-11-21T03:12:50;17.70;99.90
14473;DHT22;7322;50.872;4.386;2023-11-21T03:15:19;17.70;99.90
14473;DHT22;7322;50.872;4.386;2023-11-21T03:17:46;17.70;99.90
14473;DHT22;7322;50.872;4.386;2023-11-21T03:20:15;17.70;99.90
14473;DHT22;7322;50.872;4.386;2023-11-21T03:22:42;17.80;99.90
14473;DHT22;7322;50.872;4.386;2023-11-21T03:25:09;17.70;99.90
14473;DHT22;7322;50.872;4.386;2023-11-21T03:27:37;17.70;99.90
14473;DHT22;7322;50.872;4.386;2023-11-21T03:30:07;17.70;99.90
14473;DHT22;7322;50.872;4.386;2023-11-21T03:32:36;17.70;99.90
14473;DHT22;7322;50.872;4.386;2023-11-21T03:35:04;17.70;99.90
14473;DHT22;7322;50.872;4.386;2023-11-21T03:37:31;17.70;99.90
14473;DHT22;7322;50.872;4.386;2023-11-21T03:39:58;17.70;99.90
14473;DHT22;7322;50.872;4.386;2023-11-21T03:42:25;17.70;99.90
14473;DHT22;7322;50.872;4.386;2023-11-21T03:44:54;17.70;99.90
14473;DHT22;7322;50.872;4.386;2023-11-21T03:47:21;17.70;99.90
14473;DHT22;7322;50.872;4.386;2023-11-21T03:49:49;17.70;99.90
14473;DHT22;7322;50.872;4.386;2023-11-21T03:52:16;17.70;99.90
14473;DHT22;7322;50.872;4.386;2023-11-21T03:54:43;17.70;99.90
14473;DHT22;7322;50.872;4.386;2023-11-21T03:57:12;17.70;99.90
14473;DHT22;7322;50.872;4.386;2023-11-21T03:59:40;17.70;99.90
14473;DHT22;7322;50.872;4.386;2023-11-21T04:02:07;17.70;99.90
14473;DHT22;7322;50.872;4.386;2023-11-21T04:04:34;17.70;99.90
14473;DHT22;7322;50.872;4.386;2023-11-21T04:07:03;17.70;99.90
14473;DHT22;7322;50.872;4.386;2023-11-21T04:09:30;17.70;99.90
14473;DHT22;7322;50.872;4.386;2023-11-21T04:11:57;17.70;99.90
14473;DHT22;7322;50.872;4.386;2023-11-21T04:14:24;17.70;99.90
14473;DHT22;7322;50.872;4.386;2023-11-21T04:16:51;17.70;99.90
14473;DHT22;7322;50.872;4.386;2023-11-21T04:19:19;17.70;99.90
14473;DHT22;7322;50.872;4.386;2023-11-21T04:21:46;17.70;99.90
14473;DHT22;7322;50.872;4.386;2023-11-21T04:24:14;17.70;99.90
14473;DHT22;7322;50.872;4.386;2023-11-21T04:26:41;17.70;99.90
14473;DHT22;7322;50.872;4.386;2023-11-21T04:29:08;17.70;99.90
14473;DHT22;7322;50.872;4.386;2023-11-21T04:31:35;17.70;99.90
14473;DHT22;7322;50.872;4.386;2023-11-21T04:34:02;17.70;99.90
14473;DHT22;7322;50.872;4.386;2023-11-21T04:36:30;17.70;99.90
14473;DHT22;7322;50.872;4.386;2023-11-21T04:38:58;17.70;99.90
14473;DHT22;7322;50.872;4.386;2023-11-21T04:41:26;17.70;99.90
14473;DHT22;7322;50.872;4.386;2023-11-21T04:43:53;17.60;99.90
14473;DHT22;7322;50.872;4.386;2023-11-21T04:46:20;17.70;99.90
14473;DHT22;7322;50.872;4.386;2023-11-21T04:48:48;17.70;99.90
14473;DHT22;7322;50.872;4.386;2023-11-21T04:51:15;17.70;99.90
14473;DHT22;7322;50.872;4.386;2023-11-21T04:53:42;17.70;99.90
14473;DHT22;7322;50.872;4.386;2023-11-21T04:56:09;17.70;99.90
14473;DHT22;7322;50.872;4.386;2023-11-21T04:58:39;17.70;99.90
14473;DHT22;7322;50.872;4.386;2023-11-21T05:01:07;17.70;99.90
14473;DHT22;7322;50.872;4.386;2023-11-21T05:03:34;17.70;99.90
14473;DHT22;7322;50.872;4.386;2023-11-21T05:06:04;17.70;99.90
14473;DHT22;7322;50.872;4.386;2023-11-21T05:08:32;17.70;99.90
14473;DHT22;7322;50.872;4.386;2023-11-21T05:10:59;17.70;99.90
14473;DHT22;7322;50.872;4.386;2023-11-21T05:13:26;17.70;99.90
14473;DHT22;7322;50.872;4.386;2023-11-21T05:15:55;17.70;99.90
14473;DHT22;7322;50.872;4.386;2023-11-21T05:18:29;17.70;99.90
14473;DHT22;7322;50.872;4.386;2023-11-21T05:20:56;17.70;99.90
14473;DHT22;7322;50.872;4.386;2023-11-21T05:23:23;17.60;99.90
14473;DHT22;7322;50.872;4.386;2023-11-21T05:25:50;17.60;99.90
14473;DHT22;7322;50.872;4.386;2023-11-21T05:28:17;17.70;99.90
14473;DHT22;7322;50.872;4.386;2023-11-21T05:30:44;17.70;99.90
14473;DHT22;7322;50.872;4.386;2023-11-21T05:33:13;17.70;99.90
14473;DHT22;7322;50.872;4.386;2023-11-21T05:35:40;17.70;99.90
14473;DHT22;7322;50.872;4.386;2023-11-21T05:38:07;17.70;99.90
14473;DHT22;7322;50.872;4.386;2023-11-21T05:40:33;17.70;99.90
14473;DHT22;7322;50.872;4.386;2023-11-21T05:43:00;17.70;99.90
14473;DHT22;7322;50.872;4.386;2023-11-21T05:45:27;17.70;99.90
14473;DHT22;7322;50.872;4.386;2023-11-21T05:47:55;17.70;99.90
14473;DHT22;7322;50.872;4.386;2023-11-21T05:50:24;17.70;99.90
14473;DHT22;7322;50.872;4.386;2023-11-21T05:52:51;17.70;99.90
14473;DHT22;7322;50.872;4.386;2023-11-21T05:55:18;17.70;99.90
14473;DHT22;7322;50.872;4.386;2023-11-21T05:57:46;17.70;99.90
14473;DHT22;7322;50.872;4.386;2023-11-21T06:00:14;17.90;99.90
14473;DHT22;7322;50.872;4.386;2023-11-21T06:02:46;18.10;99.90
14473;DHT22;7322;50.872;4.386;2023-11-21T06:05:13;18.40;99.90
14473;DHT22;7322;50.872;4.386;2023-11-21T06:07:41;18.60;99.90
14473;DHT22;7322;50.872;4.386;2023-11-21T06:10:11;18.90;99.90
14473;DHT22;7322;50.872;4.386;2023-11-21T06:12:40;19.10;99.90
14473;DHT22;7322;50.872;4.386;2023-11-21T06:15:09;19.10;99.90
14473;DHT22;7322;50.872;4.386;2023-11-21T06:17:39;19.20;99.90
14473;DHT22;7322;50.872;4.386;2023-11-21T06:20:08;19.30;99.90
14473;DHT22;7322;50.872;4.386;2023-11-21T06:22:37;19.30;99.90
14473;DHT22;7322;50.872;4.386;2023-11-21T06:25:07;19.30;99.90
14473;DHT22;7322;50.872;4.386;2023-11-21T06:27:49;19.30;99.90
14473;DHT22;7322;50.872;4.386;2023-11-21T06:30:17;19.30;99.90
14473;DHT22;7322;50.872;4.386;2023-11-21T06:32:46;19.20;99.90
14473;DHT22;7322;50.872;4.386;2023-11-21T06:35:13;19.30;99.90
14473;DHT22;7322;50.872;4.386;2023-11-21T06:37:41;19.20;99.90
14473;DHT22;7322;50.872;4.386;2023-11-21T06:40:14;19.20;99.90
14473;DHT22;7322;50.872;4.386;2023-11-21T06:42:41;19.20;99.90
14473;DHT22;7322;50.872;4.386;2023-11-21T06:45:10;19.10;99.90
14473;DHT22;7322;50.872;4.386;2023-11-21T06:47:37;19.10;99.90
14473;DHT22;7322;50.872;4.386;2023-11-21T06:50:05;19.10;99.90
14473;DHT22;7322;50.872;4.386;2023-11-21T06:52:32;19.10;99.90
14473;DHT22;7322;50.872;4.386;2023-11-21T06:54:59;19.10;99.90
14473;DHT22;7322;50.872;4.386;2023-11-21T07:00:40;19.10;99.90
14473;DHT22;7322;50.872;4.386;2023-11-21T07:03:20;19.00;99.90
14473;DHT22;7322;50.872;4.386;2023-11-21T07:05:47;19.00;99.90
14473;DHT22;7322;50.872;4.386;2023-11-21T07:08:14;18.90;99.90
14473;DHT22;7322;50.872;4.386;2023-11-21T07:10:40;18.90;99.90
14473;DHT22;7322;50.872;4.386;2023-11-21T07:13:07;18.90;99.90
14473;DHT22;7322;50.872;4.386;2023-11-21T07:15:39;18.90;99.90
14473;DHT22;7322;50.872;4.386;2023-11-21T07:18:06;18.90;99.90
14473;DHT22;7322;50.872;4.386;2023-11-21T07:23:53;18.80;99.90
14473;DHT22;7322;50.872;4.386;2023-11-21T07:26:23;18.90;99.90
14473;DHT22;7322;50.872;4.386;2023-11-21T07:28:51;18.80;99.90
14473;DHT22;7322;50.872;4.386;2023-11-21T07:31:19;18.80;99.90
14473;DHT22;7322;50.872;4.386;2023-11-21T07:33:47;18.80;99.90
14473;DHT22;7322;50.872;4.386;2023-11-21T07:36:14;18.80;99.90
14473;DHT22;7322;50.872;4.386;2023-11-21T07:38:42;18.70;99.90
14473;DHT22;7322;50.872;4.386;2023-11-21T07:41:16;18.70;99.90
14473;DHT22;7322;50.872;4.386;2023-11-21T07:43:43;18.60;99.90
14473;DHT22;7322;50.872;4.386;2023-11-21T07:46:13;18.60;99.90
14473;DHT22;7322;50.872;4.386;2023-11-21T07:49:11;18.60;99.90
14473;DHT22;7322;50.872;4.386;2023-11-21T07:51:42;18.60;99.90
14473;DHT22;7322;50.872;4.386;2023-11-21T07:54:29;18.60;99.90
14473;DHT22;7322;50.872;4.386;2023-11-21T07:57:02;18.60;99.90
14473;DHT22;7322;50.872;4.386;2023-11-21T07:59:29;18.60;99.90
14473;DHT22;7322;50.872;4.386;2023-11-21T08:01:56;18.60;99.90
14473;DHT22;7322;50.872;4.386;2023-11-21T08:04:25;18.60;99.90
14473;DHT22;7322;50.872;4.386;2023-11-21T08:06:53;18.60;99.90
14473;DHT22;7322;50.872;4.386;2023-11-21T08:09:24;18.50;99.90
14473;DHT22;7322;50.872;4.386;2023-11-21T08:11:59;18.50;99.90
14473;DHT22;7322;50.872;4.386;2023-11-21T08:14:28;18.50;99.90
14473;DHT22;7322;50.872;4.386;2023-11-21T08:17:04;18.50;99.90
14473;DHT22;7322;50.872;4.386;2023-11-21T08:19:33;18.50;99.90
14473;DHT22;7322;50.872;4.386;2023-11-21T08:22:03;18.50;99.90
14473;DHT22;7322;50.872;4.386;2023-11-21T08:24:31;18.60;99.90
14473;DHT22;7322;50.872;4.386;2023-11-21T08:27:16;18.60;99.90
14473;DHT22;7322;50.872;4.386;2023-11-21T08:29:57;18.60;99.90
14473;DHT22;7322;50.872;4.386;2023-11-21T08:32:51;18.60;99.90
14473;DHT22;7322;50.872;4.386;2023-11-21T08:35:30;18.60;99.90
14473;DHT22;7322;50.872;4.386;2023-11-21T08:41:10;18.60;99.90
14473;DHT22;7322;50.872;4.386;2023-11-21T08:43:52;18.60;99.90
14473;DHT22;7322;50.872;4.386;2023-11-21T08:46:33;18.50;99.90
14473;DHT22;7322;50.872;4.386;2023-11-21T08:49:02;18.50;99.90
14473;DHT22;7322;50.872;4.386;2023-11-21T08:51:34;18.50;99.90
14473;DHT22;7322;50.872;4.386;2023-11-21T08:54:06;18.50;99.90
14473;DHT22;7322;50.872;4.386;2023-11-21T08:59:34;18.40;99.90
14473;DHT22;7322;50.872;4.386;2023-11-21T09:02:35;18.40;99.90
14473;DHT22;7322;50.872;4.386;2023-11-21T09:08:27;18.40;99.90
14473;DHT22;7322;50.872;4.386;2023-11-21T09:11:17;18.40;99.90
14473;DHT22;7322;50.872;4.386;2023-11-21T09:14:17;18.30;99.90
14473;DHT22;7322;50.872;4.386;2023-11-21T09:16:45;18.30;99.90
14473;DHT22;7322;50.872;4.386;2023-11-21T09:19:12;18.30;99.90
14473;DHT22;7322;50.872;4.386;2023-11-21T09:21:41;18.30;99.90
14473;DHT22;7322;50.872;4.386;2023-11-21T09:24:09;18.30;99.90
14473;DHT22;7322;50.872;4.386;2023-11-21T09:26:43;18.30;99.90
14473;DHT22;7322;50.872;4.386;2023-11-21T09:29:23;18.20;99.90
14473;DHT22;7322;50.872;4.386;2023-11-21T09:32:15;18.20;99.90
14473;DHT22;7322;50.872;4.386;2023-11-21T09:34:42;18.20;99.90
14473;DHT22;7322;50.872;4.386;2023-11-21T09:37:26;18.10;99.90
14473;DHT22;7322;50.872;4.386;2023-11-21T09:40:20;18.10;99.90
14473;DHT22;7322;50.872;4.386;2023-11-21T09:43:07;18.10;99.90
14473;DHT22;7322;50.872;4.386;2023-11-21T09:45:45;18.10;99.90
14473;DHT22;7322;50.872;4.386;2023-11-21T09:48:32;18.10;99.90
14473;DHT22;7322;50.872;4.386;2023-11-21T09:51:08;18.10;99.90
14473;DHT22;7322;50.872;4.386;2023-11-21T09:53:36;18.10;99.90
14473;DHT22;7322;50.872;4.386;2023-11-21T09:56:13;18.10;99.90
14473;DHT22;7322;50.872;4.386;2023-11-21T09:59:00;18.10;99.90
14473;DHT22;7322;50.872;4.386;2023-11-21T10:01:41;18.00;99.90
14473;DHT22;7322;50.872;4.386;2023-11-21T10:04:20;18.00;99.90
14473;DHT22;7322;50.872;4.386;2023-11-21T10:06:47;18.00;99.90
14473;DHT22;7322;50.872;4.386;2023-11-21T10:09:33;18.10;99.90
14473;DHT22;7322;50.872;4.386;2023-11-21T10:15:23;18.00;99.90
14473;DHT22;7322;50.872;4.386;2023-11-21T10:18:16;18.00;99.90
14473;DHT22;7322;50.872;4.386;2023-11-21T10:20:59;18.00;99.90
14473;DHT22;7322;50.872;4.386;2023-11-21T10:23:32;18.00;99.90
14473;DHT22;7322;50.872;4.386;2023-11-21T10:26:00;18.00;99.90
14473;DHT22;7322;50.872;4.386;2023-11-21T10:28:37;18.00;99.90
14473;DHT22;7322;50.872;4.386;2023-11-21T10:31:13;18.00;99.90
14473;DHT22;7322;50.872;4.386;2023-11-21T10:37:10;18.10;99.90
14473;DHT22;7322;50.872;4.386;2023-11-21T10:39:39;18.10;99.90
14473;DHT22;7322;50.872;4.386;2023-11-21T10:42:08;18.10;99.90
14473;DHT22;7322;50.872;4.386;2023-11-21T10:44:35;18.10;99.90
14473;DHT22;7322;50.872;4.386;2023-11-21T10:47:04;18.10;99.90
14473;DHT22;7322;50.872;4.386;2023-11-21T10:49:31;18.10;99.90
14473;DHT22;7322;50.872;4.386;2023-11-21T10:51:59;18.00;99.90
14473;DHT22;7322;50.872;4.386;2023-11-21T10:54:26;18.10;99.90
14473;DHT22;7322;50.872;4.386;2023-11-21T10:56:56;18.10;99.90
14473;DHT22;7322;50.872;4.386;2023-11-21T10:59:26;18.10;99.90
14473;DHT22;7322;50.872;4.386;2023-11-21T11:01:57;18.00;99.90
14473;DHT22;7322;50.872;4.386;2023-11-21T11:04:28;18.10;99.90
14473;DHT22;7322;50.872;4.386;2023-11-21T11:07:13;18.10;99.90
14473;DHT22;7322;50.872;4.386;2023-11-21T11:09:42;18.10;99.90
14473;DHT22;7322;50.872;4.386;2023-11-21T11:12:12;18.10;99.90
14473;DHT22;7322;50.872;4.386;2023-11-21T11:14:56;18.10;99.90
14473;DHT22;7322;50.872;4.386;2023-11-21T11:17:32;18.00;99.90
14473;DHT22;7322;50.872;4.386;2023-11-21T11:20:19;18.10;99.90
14473;DHT22;7322;50.872;4.386;2023-11-21T11:22:54;18.10;99.90
14473;DHT22;7322;50.872;4.386;2023-11-21T11:25:39;18.10;99.90
14473;DHT22;7322;50.872;4.386;2023-11-21T11:28:15;18.10;99.90
14473;DHT22;7322;50.872;4.386;2023-11-21T11:30:54;18.00;99.90
14473;DHT22;7322;50.872;4.386;2023-11-21T11:33:52;18.00;99.90
14473;DHT22;7322;50.872;4.386;2023-11-21T11:36:59;18.00;99.90
14473;DHT22;7322;50.872;4.386;2023-11-21T11:39:52;18.00;99.90
14473;DHT22;7322;50.872;4.386;2023-11-21T11:42:21;18.00;99.90
14473;DHT22;7322;50.872;4.386;2023-11-21T11:44:57;18.00;99.90
14473;DHT22;7322;50.872;4.386;2023-11-21T11:47:25;18.00;99.90
14473;DHT22;7322;50.872;4.386;2023-11-21T11:50:00;18.00;99.90
14473;DHT22;7322;50.872;4.386;2023-11-21T11:52:53;18.00;99.90
14473;DHT22;7322;50.872;4.386;2023-11-21T11:55:24;18.00;99.90
14473;DHT22;7322;50.872;4.386;2023-11-21T11:58:00;18.00;99.90
14473;DHT22;7322;50.872;4.386;2023-11-21T12:00:45;18.00;99.90
14473;DHT22;7322;50.872;4.386;2023-11-21T12:03:33;18.00;99.90
14473;DHT22;7322;50.872;4.386;2023-11-21T12:06:06;17.90;99.90
14473;DHT22;7322;50.872;4.386;2023-11-21T12:08:36;17.90;99.90
14473;DHT22;7322;50.872;4.386;2023-11-21T12:11:12;17.90;99.90
14473;DHT22;7322;50.872;4.386;2023-11-21T12:13:55;18.00;99.90
14473;DHT22;7322;50.872;4.386;2023-11-21T12:16:37;18.00;99.90
14473;DHT22;7322;50.872;4.386;2023-11-21T12:19:11;18.00;99.90
14473;DHT22;7322;50.872;4.386;2023-11-21T12:21:40;18.00;99.90
14473;DHT22;7322;50.872;4.386;2023-11-21T12:24:09;18.00;99.90
14473;DHT22;7322;50.872;4.386;2023-11-21T12:26:52;18.00;99.90
14473;DHT22;7322;50.872;4.386;2023-11-21T12:29:32;18.00;99.90
14473;DHT22;7322;50.872;4.386;2023-11-21T12:32:19;18.00;99.90
14473;DHT22;7322;50.872;4.386;2023-11-21T12:34:49;18.00;99.90
14473;DHT22;7322;50.872;4.386;2023-11-21T12:37:32;18.00;99.90
14473;DHT22;7322;50.872;4.386;2023-11-21T12:40:01;18.00;99.90
14473;DHT22;7322;50.872;4.386;2023-11-21T12:42:30;18.00;99.90
14473;DHT22;7322;50.872;4.386;2023-11-21T12:47:52;18.00;99.90
14473;DHT22;7322;50.872;4.386;2023-11-21T12:50:39;18.00;99.90
14473;DHT22;7322;50.872;4.386;2023-11-21T12:53:10;18.00;99.90
14473;DHT22;7322;50.872;4.386;2023-11-21T12:55:40;18.00;99.90
14473;DHT22;7322;50.872;4.386;2023-11-21T12:58:14;18.00;99.90
14473;DHT22;7322;50.872;4.386;2023-11-21T13:00:51;18.00;99.90
14473;DHT22;7322;50.872;4.386;2023-11-21T13:03:28;18.00;99.90
14473;DHT22;7322;50.872;4.386;2023-11-21T13:06:19;18.00;99.90
14473;DHT22;7322;50.872;4.386;2023-11-21T13:08:50;18.00;99.90
14473;DHT22;7322;50.872;4.386;2023-11-21T13:11:18;18.00;99.90
14473;DHT22;7322;50.872;4.386;2023-11-21T13:13:51;18.00;99.90
14473;DHT22;7322;50.872;4.386;2023-11-21T13:16:31;18.00;99.90
14473;DHT22;7322;50.872;4.386;2023-11-21T13:18:58;18.00;99.90
14473;DHT22;7322;50.872;4.386;2023-11-21T13:21:43;18.00;99.90
14473;DHT22;7322;50.872;4.386;2023-11-21T13:24:11;18.00;99.90
14473;DHT22;7322;50.872;4.386;2023-11-21T13:29:28;18.00;99.90
14473;DHT22;7322;50.872;4.386;2023-11-21T13:31:55;18.00;99.90
14473;DHT22;7322;50.872;4.386;2023-11-21T13:34:22;18.00;99.90
14473;DHT22;7322;50.872;4.386;2023-11-21T13:36:54;18.00;99.90
14473;DHT22;7322;50.872;4.386;2023-11-21T13:39:46;18.00;99.90
14473;DHT22;7322;50.872;4.386;2023-11-21T13:48:42;18.00;99.90
14473;DHT22;7322;50.872;4.386;2023-11-21T13:51:17;18.00;99.90
14473;DHT22;7322;50.872;4.386;2023-11-21T13:53:57;17.90;99.90
14473;DHT22;7322;50.872;4.386;2023-11-21T13:56:24;18.00;99.90
14473;DHT22;7322;50.872;4.386;2023-11-21T13:58:57;17.90;99.90
14473;DHT22;7322;50.872;4.386;2023-11-21T14:05:10;17.90;99.90
14473;DHT22;7322;50.872;4.386;2023-11-21T14:07:41;17.90;99.90
14473;DHT22;7322;50.872;4.386;2023-11-21T14:10:13;17.90;99.90
14473;DHT22;7322;50.872;4.386;2023-11-21T14:12:41;17.90;99.90
14473;DHT22;7322;50.872;4.386;2023-11-21T14:15:09;17.90;99.90
14473;DHT22;7322;50.872;4.386;2023-11-21T14:17:38;17.90;99.90
14473;DHT22;7322;50.872;4.386;2023-11-21T14:20:11;17.90;99.90
14473;DHT22;7322;50.872;4.386;2023-11-21T14:22:41;17.90;99.90
14473;DHT22;7322;50.872;4.386;2023-11-21T14:25:09;17.90;99.90
14473;DHT22;7322;50.872;4.386;2023-11-21T14:27:38;17.90;99.90
14473;DHT22;7322;50.872;4.386;2023-11-21T14:30:06;18.00;99.90
14473;DHT22;7322;50.872;4.386;2023-11-21T14:32:34;17.90;99.90
14473;DHT22;7322;50.872;4.386;2023-11-21T14:35:05;17.90;99.90
14473;DHT22;7322;50.872;4.386;2023-11-21T14:37:36;17.90;99.90
14473;DHT22;7322;50.872;4.386;2023-11-21T14:40:04;17.90;99.90
14473;DHT22;7322;50.872;4.386;2023-11-21T14:42:33;17.90;99.90
14473;DHT22;7322;50.872;4.386;2023-11-21T14:45:00;17.90;99.90
14473;DHT22;7322;50.872;4.386;2023-11-21T14:47:33;17.90;99.90
14473;DHT22;7322;50.872;4.386;2023-11-21T14:50:00;17.90;99.90
14473;DHT22;7322;50.872;4.386;2023-11-21T14:52:52;17.90;99.90
14473;DHT22;7322;50.872;4.386;2023-11-21T14:55:25;17.90;99.90
14473;DHT22;7322;50.872;4.386;2023-11-21T14:58:17;17.90;99.90
14473;DHT22;7322;50.872;4.386;2023-11-21T15:00:55;17.90;99.90
14473;DHT22;7322;50.872;4.386;2023-11-21T15:03:25;17.90;99.90
14473;DHT22;7322;50.872;4.386;2023-11-21T15:06:09;17.90;99.90
14473;DHT22;7322;50.872;4.386;2023-11-21T15:09:22;17.90;99.90
14473;DHT22;7322;50.872;4.386;2023-11-21T15:12:22;17.90;99.90
14473;DHT22;7322;50.872;4.386;2023-11-21T15:15:10;17.90;99.90
14473;DHT22;7322;50.872;4.386;2023-11-21T15:17:37;17.90;99.90
14473;DHT22;7322;50.872;4.386;2023-11-21T15:20:25;17.90;99.90
14473;DHT22;7322;50.872;4.386;2023-11-21T15:22:54;17.90;99.90
14473;DHT22;7322;50.872;4.386;2023-11-21T15:28:46;17.80;99.90
14473;DHT22;7322;50.872;4.386;2023-11-21T15:31:19;17.90;99.90
14473;DHT22;7322;50.872;4.386;2023-11-21T15:34:01;17.90;99.90
14473;DHT22;7322;50.872;4.386;2023-11-21T15:36:52;17.90;99.90
14473;DHT22;7322;50.872;4.386;2023-11-21T15:39:34;17.90;99.90
14473;DHT22;7322;50.872;4.386;2023-11-21T15:42:15;17.90;99.90
14473;DHT22;7322;50.872;4.386;2023-11-21T15:44:56;17.90;99.90
14473;DHT22;7322;50.872;4.386;2023-11-21T15:47:23;17.80;99.90
14473;DHT22;7322;50.872;4.386;2023-11-21T15:50:03;17.90;99.90
14473;DHT22;7322;50.872;4.386;2023-11-21T15:52:36;17.90;99.90
14473;DHT22;7322;50.872;4.386;2023-11-21T15:55:04;17.80;99.90
14473;DHT22;7322;50.872;4.386;2023-11-21T15:57:32;17.80;99.90
14473;DHT22;7322;50.872;4.386;2023-11-21T16:00:01;17.80;99.90
14473;DHT22;7322;50.872;4.386;2023-11-21T16:02:47;17.80;99.90
14473;DHT22;7322;50.872;4.386;2023-11-21T16:05:14;17.80;99.90
14473;DHT22;7322;50.872;4.386;2023-11-21T16:07:51;17.80;99.90
14473;DHT22;7322;50.872;4.386;2023-11-21T16:10:25;17.80;99.90
14473;DHT22;7322;50.872;4.386;2023-11-21T16:13:10;17.90;99.90
14473;DHT22;7322;50.872;4.386;2023-11-21T16:19:02;17.80;99.90
14473;DHT22;7322;50.872;4.386;2023-11-21T16:21:29;17.80;99.90
14473;DHT22;7322;50.872;4.386;2023-11-21T16:23:56;17.80;99.90
14473;DHT22;7322;50.872;4.386;2023-11-21T16:26:23;17.80;99.90
14473;DHT22;7322;50.872;4.386;2023-11-21T16:28:50;17.80;99.90
14473;DHT22;7322;50.872;4.386;2023-11-21T16:31:31;17.80;99.90
14473;DHT22;7322;50.872;4.386;2023-11-21T16:34:14;17.80;99.90
14473;DHT22;7322;50.872;4.386;2023-11-21T16:36:43;17.80;99.90
14473;DHT22;7322;50.872;4.386;2023-11-21T16:39:11;17.80;99.90
14473;DHT22;7322;50.872;4.386;2023-11-21T16:41:46;17.80;99.90
14473;DHT22;7322;50.872;4.386;2023-11-21T16:44:20;17.80;99.90
14473;DHT22;7322;50.872;4.386;2023-11-21T16:46:56;17.80;99.90
14473;DHT22;7322;50.872;4.386;2023-11-21T16:49:27;17.80;99.90
14473;DHT22;7322;50.872;4.386;2023-11-21T16:52:08;17.80;99.90
14473;DHT22;7322;50.872;4.386;2023-11-21T16:54:35;17.90;99.90
14473;DHT22;7322;50.872;4.386;2023-11-21T16:57:19;17.80;99.90
14473;DHT22;7322;50.872;4.386;2023-11-21T16:59:47;17.80;99.90